Time;durP1;ratioP1;P1;durP2;ratioP2;P2;SDS_P1;SDS_P2;PMS_P1;PMS_P2;Temp;Humidity;BMP_temperature;BMP_pressure;BME280_temperature;BME280_humidity;BME280_pressure;Samples;Min_cycle;Max_cycle;Signal;HPM_P1;HPM_P2
2022/06/14 00:02:51;;;;;;;1.57;0.77;;;13.30;99.90;;;;;;5194370;28;20176;-55
2022/06/14 00:05:21;;;;;;;2.43;1.37;;;13.30;99.90;;;;;;5205576;28;20429;-56
2022/06/14 00:07:52;;;;;;;2.30;1.10;;;13.20;99.90;;;;;;5201925;28;20180;-56
2022/06/14 00:10:23;;;;;;;1.30;1.20;;;13.10;99.90;;;;;;5186601;28;20214;-54
2022/06/14 00:12:53;;;;;;;2.97;1.17;;;13.10;99.90;;;;;;5188208;28;20202;-56
2022/06/14 00:15:24;;;;;;;2.83;1.43;;;13.10;99.90;;;;;;5177415;28;20181;-56
2022/06/14 00:17:55;;;;;;;1.23;1.07;;;13.10;99.90;;;;;;5185705;28;20211;-57
2022/06/14 00:20:26;;;;;;;1.57;1.30;;;13.00;99.90;;;;;;5181372;28;20220;-56
2022/06/14 00:22:56;;;;;;;4.00;1.30;;;12.90;99.90;;;;;;5176190;28;20181;-56
2022/06/14 00:25:39;;;;;;;2.77;1.60;;;12.90;99.90;;;;;;5176517;28;20428;-56
2022/06/14 00:28:12;;;;;;;2.57;1.20;;;12.90;99.90;;;;;;5182338;28;20184;-56
2022/06/14 00:30:45;;;;;;;1.60;0.83;;;12.90;99.90;;;;;;5175358;28;20462;-57
2022/06/14 00:33:17;;;;;;;2.30;1.50;;;13.00;99.90;;;;;;5185453;28;20525;-56
2022/06/14 00:35:47;;;;;;;1.10;0.97;;;13.00;99.90;;;;;;5172140;28;20486;-55
2022/06/14 00:38:18;;;;;;;12.37;2.07;;;13.00;99.90;;;;;;5182249;28;20431;-56
2022/06/14 00:40:51;;;;;;;4.60;1.63;;;12.90;99.90;;;;;;5178943;28;20216;-54
2022/06/14 00:43:23;;;;;;;1.60;1.20;;;12.90;99.90;;;;;;5177800;28;20185;-56
2022/06/14 00:45:59;;;;;;;6.53;1.23;;;12.80;99.90;;;;;;5184224;28;20446;-54
2022/06/14 00:48:32;;;;;;;3.70;1.90;;;12.80;99.90;;;;;;5175340;28;20432;-56
2022/06/14 00:51:19;;;;;;;4.00;1.53;;;12.70;99.90;;;;;;5172931;28;20460;-55
2022/06/14 00:53:49;;;;;;;6.93;1.60;;;12.60;99.90;;;;;;5174807;28;20427;-56
2022/06/14 00:56:27;;;;;;;1.60;1.50;;;12.60;99.90;;;;;;5182440;28;20487;-56
2022/06/14 00:59:21;;;;;;;1.57;1.07;;;12.50;99.90;;;;;;5177601;28;20293;-55
2022/06/14 01:01:56;;;;;;;1.87;1.17;;;12.40;99.90;;;;;;5174384;28;20435;-56
2022/06/14 01:04:30;;;;;;;6.23;1.80;;;12.30;99.90;;;;;;5183851;28;20446;-56
2022/06/14 01:07:24;;;;;;;4.63;1.10;;;12.30;99.90;;;;;;5180157;28;20863;-56
2022/06/14 01:10:06;;;;;;;12.20;1.70;;;12.30;99.90;;;;;;5185405;28;20460;-56
2022/06/14 01:12:40;;;;;;;2.57;1.23;;;12.20;99.90;;;;;;5183234;28;20797;-55
2022/06/14 01:15:18;;;;;;;3.90;1.27;;;12.20;99.90;;;;;;5177392;28;20429;-55
2022/06/14 01:17:56;;;;;;;1.40;0.90;;;12.20;99.90;;;;;;5173994;28;20450;-55
2022/06/14 01:20:27;;;;;;;4.47;1.50;;;12.10;99.90;;;;;;5182215;28;20479;-54
2022/06/14 01:22:58;;;;;;;4.67;1.83;;;12.10;99.90;;;;;;5173071;28;20428;-56
2022/06/14 01:25:33;;;;;;;15.00;1.80;;;12.00;99.90;;;;;;5184899;28;20982;-55
2022/06/14 01:28:05;;;;;;;4.53;1.47;;;12.00;99.90;;;;;;5182541;28;20518;-56
2022/06/14 01:30:42;;;;;;;3.30;1.43;;;12.00;99.90;;;;;;5180985;28;20504;-55
2022/06/14 01:33:17;;;;;;;2.73;1.33;;;12.00;99.90;;;;;;5184658;28;20473;-55
2022/06/14 01:35:54;;;;;;;1.00;1.00;;;11.90;99.90;;;;;;5173876;28;20923;-55
2022/06/14 01:38:25;;;;;;;2.13;1.10;;;11.90;99.90;;;;;;5182102;28;20537;-56
2022/06/14 01:41:14;;;;;;;1.87;1.20;;;11.80;99.90;;;;;;5182199;28;20522;-56
2022/06/14 01:44:14;;;;;;;4.47;1.20;;;11.80;99.90;;;;;;5180028;28;20184;-56
2022/06/14 01:46:59;;;;;;;3.90;1.27;;;11.70;99.90;;;;;;5175982;28;20431;-55
2022/06/14 01:52:50;;;;;;;1.97;1.00;;;11.70;99.90;;;;;;5181130;28;20813;-55
2022/06/14 01:55:30;;;;;;;4.60;1.13;;;11.60;99.90;;;;;;5179312;28;20864;-55
2022/06/14 01:58:28;;;;;;;2.73;1.20;;;11.60;99.90;;;;;;5180210;28;20867;-56
2022/06/14 02:01:16;;;;;;;5.47;1.87;;;11.60;99.90;;;;;;5167598;28;20819;-55
2022/06/14 02:07:26;;;;;;;3.33;1.70;;;11.50;99.90;;;;;;5178076;28;20849;-55
2022/06/14 02:10:10;;;;;;;1.80;1.40;;;11.50;99.90;;;;;;5183247;28;20443;-56
2022/06/14 02:13:08;;;;;;;2.90;1.30;;;11.50;99.90;;;;;;5183233;28;20798;-56
2022/06/14 02:15:46;;;;;;;10.90;1.43;;;11.40;99.90;;;;;;5181836;28;20423;-55
2022/06/14 02:18:20;;;;;;;0.77;0.77;;;11.40;99.90;;;;;;5194896;28;20511;-55
2022/06/14 02:21:19;;;;;;;8.97;1.70;;;11.40;99.90;;;;;;5191651;28;20435;-54
2022/06/14 02:24:22;;;;;;;11.07;1.73;;;11.40;99.90;;;;;;5176094;28;20426;-56
2022/06/14 02:26:56;;;;;;;3.70;1.90;;;11.30;99.90;;;;;;5179582;28;20428;-55
2022/06/14 02:29:35;;;;;;;1.87;1.30;;;11.30;99.90;;;;;;5180411;28;20455;-56
2022/06/14 02:32:18;;;;;;;1.17;1.07;;;11.20;99.90;;;;;;5183075;28;20441;-56
2022/06/14 02:34:58;;;;;;;1.67;1.43;;;11.20;99.90;;;;;;5180718;28;20442;-56
2022/06/14 02:37:55;;;;;;;2.17;0.97;;;11.20;99.90;;;;;;5183392;28;20446;-56
2022/06/14 02:40:45;;;;;;;4.80;1.57;;;11.20;99.90;;;;;;5168437;28;20560;-55
2022/06/14 02:43:26;;;;;;;3.93;1.30;;;11.20;99.90;;;;;;5176669;28;20490;-56
2022/06/14 02:46:18;;;;;;;3.53;1.37;;;11.10;99.90;;;;;;5177435;28;20490;-55
2022/06/14 02:49:10;;;;;;;5.93;2.33;;;11.10;99.90;;;;;;5177206;28;20464;-56
2022/06/14 02:51:50;;;;;;;7.50;1.57;;;11.00;99.90;;;;;;5182210;28;20427;-56
2022/06/14 02:54:27;;;;;;;3.83;1.70;;;11.10;99.90;;;;;;5172252;28;20426;-55
2022/06/14 02:57:06;;;;;;;5.50;1.23;;;11.10;99.90;;;;;;5179256;28;20477;-56
2022/06/14 02:59:44;;;;;;;1.77;1.40;;;11.10;99.90;;;;;;5183049;28;20473;-56
2022/06/14 03:02:20;;;;;;;4.83;1.57;;;11.10;99.90;;;;;;5182853;28;20439;-55
2022/06/14 03:04:59;;;;;;;4.23;2.03;;;11.00;99.90;;;;;;5182847;28;20425;-55
2022/06/14 03:07:39;;;;;;;3.10;1.23;;;11.10;99.90;;;;;;5177537;28;20919;-56
2022/06/14 03:10:10;;;;;;;4.93;1.47;;;11.10;99.90;;;;;;5176928;28;20473;-56
2022/06/14 03:12:53;;;;;;;9.67;1.83;;;11.10;99.90;;;;;;5182895;28;20523;-56
2022/06/14 03:15:47;;;;;;;4.67;1.37;;;11.10;99.90;;;;;;5181483;28;20514;-57
2022/06/14 03:18:29;;;;;;;1.90;1.33;;;11.20;99.90;;;;;;5177498;28;21095;-54
2022/06/14 03:21:34;;;;;;;9.83;1.80;;;11.20;99.90;;;;;;5175710;28;20442;-56
2022/06/14 03:24:13;;;;;;;6.33;1.70;;;11.30;99.90;;;;;;5187677;28;20422;-55
2022/06/14 03:27:16;;;;;;;6.10;2.13;;;11.40;99.90;;;;;;5186304;28;20939;-56
2022/06/14 03:29:59;;;;;;;7.50;1.20;;;11.50;99.90;;;;;;5184254;28;21054;-55
2022/06/14 03:32:54;;;;;;;10.43;1.43;;;11.50;99.90;;;;;;5181198;28;20438;-55
2022/06/14 03:35:33;;;;;;;6.43;2.10;;;11.50;99.90;;;;;;5185893;28;20427;-56
2022/06/14 03:38:20;;;;;;;9.20;2.70;;;11.50;99.90;;;;;;5178874;28;20428;-55
2022/06/14 03:40:51;;;;;;;5.60;1.90;;;11.50;99.90;;;;;;5178328;28;20515;-55
2022/06/14 03:43:22;;;;;;;4.93;1.60;;;11.50;99.90;;;;;;5173595;28;20434;-57
2022/06/14 03:46:07;;;;;;;5.50;1.60;;;11.50;99.90;;;;;;5187707;28;20411;-56
2022/06/14 03:48:46;;;;;;;3.60;2.00;;;11.50;99.90;;;;;;5179407;28;20428;-57
2022/06/14 03:51:23;;;;;;;4.90;1.83;;;11.50;99.90;;;;;;5181871;28;20427;-56
2022/06/14 03:54:25;;;;;;;5.40;1.67;;;11.50;99.90;;;;;;5181572;28;20434;-57
2022/06/14 03:57:22;;;;;;;7.30;1.73;;;11.50;99.90;;;;;;5177373;28;20442;-56
2022/06/14 03:59:55;;;;;;;8.17;1.70;;;11.70;99.90;;;;;;5186905;28;21021;-56
2022/06/14 04:02:54;;;;;;;3.90;2.03;;;11.80;99.90;;;;;;5186380;28;20907;-57
2022/06/14 04:05:52;;;;;;;3.00;2.20;;;11.90;99.90;;;;;;5178473;28;20438;-55
2022/06/14 04:08:44;;;;;;;1.47;1.37;;;11.90;99.90;;;;;;5184380;28;20512;-56
2022/06/14 04:11:22;;;;;;;4.40;1.77;;;12.00;99.90;;;;;;5177220;28;20543;-55
2022/06/14 04:14:04;;;;;;;7.73;2.30;;;12.10;99.90;;;;;;5169225;28;20795;-55
2022/06/14 04:16:40;;;;;;;7.07;2.20;;;12.10;99.90;;;;;;5185597;28;20953;-56
2022/06/14 04:19:28;;;;;;;12.77;2.20;;;12.20;99.90;;;;;;5182900;28;20486;-55
2022/06/14 04:22:11;;;;;;;5.43;1.60;;;12.20;99.90;;;;;;5174097;28;20929;-54
2022/06/14 04:25:09;;;;;;;3.57;1.70;;;12.40;99.90;;;;;;5180985;28;20506;-55
2022/06/14 04:28:08;;;;;;;4.33;1.80;;;12.50;99.90;;;;;;5186755;28;20427;-56
2022/06/14 04:30:55;;;;;;;3.60;1.80;;;12.50;99.90;;;;;;5179490;28;20450;-58
2022/06/14 04:33:37;;;;;;;3.53;1.33;;;12.70;99.90;;;;;;5179423;28;20473;-55
2022/06/14 04:36:19;;;;;;;6.37;1.87;;;12.80;99.90;;;;;;5177494;28;20438;-57
2022/06/14 04:38:59;;;;;;;3.10;1.47;;;13.20;99.90;;;;;;5174732;28;20467;-55
2022/06/14 04:42:00;;;;;;;8.77;2.03;;;13.60;99.90;;;;;;5185151;28;20431;-55
2022/06/14 04:44:54;;;;;;;9.30;1.63;;;13.80;99.90;;;;;;5174742;28;20432;-56
2022/06/14 04:47:33;;;;;;;7.50;1.93;;;14.40;99.90;;;;;;5184901;28;20435;-55
2022/06/14 04:50:14;;;;;;;5.77;1.33;;;15.10;99.90;;;;;;5177852;28;20495;-55
2022/06/14 04:52:51;;;;;;;15.20;2.03;;;15.70;99.90;;;;;;5179439;28;20440;-55
2022/06/14 04:55:29;;;;;;;10.10;2.30;;;16.00;97.80;;;;;;5172503;28;20850;-56
2022/06/14 04:58:10;;;;;;;2.63;2.20;;;16.30;95.20;;;;;;5173083;28;20420;-54
2022/06/14 05:00:45;;;;;;;14.10;2.33;;;15.80;94.20;;;;;;5174013;28;20470;-55
2022/06/14 05:03:25;;;;;;;9.77;1.70;;;15.60;94.70;;;;;;5182307;28;20525;-56
2022/06/14 05:06:09;;;;;;;3.37;1.53;;;15.50;95.40;;;;;;5181413;28;20469;-57
2022/06/14 05:09:01;;;;;;;4.57;2.17;;;15.30;94.50;;;;;;5175762;28;20431;-57
2022/06/14 05:11:56;;;;;;;4.37;1.90;;;15.80;93.80;;;;;;5177594;28;20424;-56
2022/06/14 05:14:34;;;;;;;4.70;2.13;;;15.60;92.80;;;;;;5173838;28;20955;-56
2022/06/14 05:17:16;;;;;;;6.30;1.80;;;15.40;93.50;;;;;;5183549;28;20481;-56
2022/06/14 05:20:13;;;;;;;5.10;1.50;;;15.50;94.00;;;;;;5175224;28;20464;-57
2022/06/14 05:22:52;;;;;;;3.13;1.53;;;16.00;92.80;;;;;;5168987;28;20518;-57
2022/06/14 05:25:25;;;;;;;4.23;1.90;;;17.10;89.40;;;;;;5179621;28;20487;-56
2022/06/14 05:28:09;;;;;;;6.77;1.77;;;17.30;83.60;;;;;;5183495;28;20420;-56
2022/06/14 05:31:02;;;;;;;4.83;1.50;;;17.50;81.20;;;;;;5181214;28;20451;-57
2022/06/14 05:33:49;;;;;;;3.43;1.30;;;17.10;79.70;;;;;;5180215;28;20434;-57
2022/06/14 05:36:31;;;;;;;7.63;2.17;;;17.60;79.70;;;;;;5184428;28;20435;-56
2022/06/14 05:39:14;;;;;;;3.53;2.00;;;18.40;74.60;;;;;;5179731;28;20502;-56
2022/06/14 05:41:56;;;;;;;5.70;2.13;;;18.80;70.70;;;;;;5183932;28;20431;-57
2022/06/14 05:44:32;;;;;;;9.23;2.57;;;18.80;67.60;;;;;;5189225;28;20440;-56
2022/06/14 05:47:12;;;;;;;8.50;3.30;;;18.50;67.60;;;;;;5177125;28;20430;-58
2022/06/14 05:49:54;;;;;;;3.00;1.97;;;18.90;66.80;;;;;;5182971;28;20451;-57
2022/06/14 05:52:34;;;;;;;5.80;2.00;;;19.40;64.50;;;;;;5174354;28;20853;-58
2022/06/14 05:55:16;;;;;;;6.60;1.87;;;20.40;61.00;;;;;;5183911;28;20872;-57
2022/06/14 05:57:52;;;;;;;7.97;2.23;;;20.40;58.50;;;;;;5181266;28;20782;-57
2022/06/14 06:00:48;;;;;;;8.50;2.60;;;20.30;57.80;;;;;;5207574;23;20505;-51
2022/06/14 06:03:49;;;;;;;3.30;2.10;;;20.40;58.10;;;;;;5201057;28;20430;-50
2022/06/14 06:06:29;;;;;;;6.60;2.20;;;21.00;56.30;;;;;;5190914;28;20435;-51
2022/06/14 06:09:16;;;;;;;1.50;1.40;;;21.80;54.00;;;;;;5197482;28;20486;-51
2022/06/14 06:11:52;;;;;;;3.63;1.90;;;22.80;51.70;;;;;;5173309;28;20469;-51
2022/06/14 06:14:30;;;;;;;2.63;1.40;;;24.80;48.50;;;;;;5180554;28;20443;-51
2022/06/14 06:17:15;;;;;;;8.20;2.47;;;26.20;44.20;;;;;;5181515;28;20471;-51
2022/06/14 06:19:57;;;;;;;6.93;2.30;;;25.80;41.90;;;;;;5178124;28;20526;-50
2022/06/14 06:22:34;;;;;;;1.93;1.37;;;26.50;41.30;;;;;;5182158;28;20459;-52
2022/06/14 06:25:28;;;;;;;2.70;1.80;;;26.70;38.50;;;;;;5179657;28;20442;-53
2022/06/14 06:28:08;;;;;;;6.03;1.90;;;27.40;38.20;;;;;;5172418;28;20440;-52
2022/06/14 06:30:49;;;;;;;5.67;1.83;;;26.60;38.60;;;;;;5184798;28;20462;-52
2022/06/14 06:33:21;;;;;;;5.40;2.30;;;24.60;41.20;;;;;;5185360;28;20443;-52
2022/06/14 06:36:22;;;;;;;5.37;1.73;;;23.60;42.30;;;;;;5176710;28;20450;-51
2022/06/14 06:39:21;;;;;;;8.37;2.30;;;23.40;42.90;;;;;;5175809;28;20471;-52
2022/06/14 06:41:59;;;;;;;4.47;1.70;;;23.00;43.70;;;;;;5177460;28;21426;-51
2022/06/14 06:44:51;;;;;;;4.30;1.47;;;23.60;43.40;;;;;;5174816;28;20784;-51
2022/06/14 06:47:33;;;;;;;3.10;1.77;;;24.30;40.90;;;;;;5177318;28;21009;-51
2022/06/14 06:50:20;;;;;;;10.93;2.03;;;23.30;42.00;;;;;;5187474;28;20455;-51
2022/06/14 06:53:22;;;;;;;3.37;1.80;;;21.90;44.90;;;;;;5187427;28;20521;-50
2022/06/14 06:56:11;;;;;;;11.43;1.77;;;20.90;46.20;;;;;;5174677;28;20454;-51
2022/06/14 06:59:02;;;;;;;4.50;1.73;;;20.70;48.10;;;;;;5173184;28;20547;-54
2022/06/14 07:01:39;;;;;;;5.73;1.97;;;20.80;48.50;;;;;;5183644;28;20431;-51
2022/06/14 07:04:19;;;;;;;8.63;2.17;;;20.80;47.90;;;;;;5179830;28;20406;-51
2022/06/14 07:06:59;;;;;;;2.93;1.53;;;20.10;48.60;;;;;;5182444;28;20428;-51
2022/06/14 07:09:41;;;;;;;9.20;1.97;;;19.40;50.10;;;;;;5173805;28;21051;-51
2022/06/14 07:12:19;;;;;;;12.73;2.57;;;18.90;51.10;;;;;;5173579;28;20467;-51
2022/06/14 07:14:53;;;;;;;7.77;1.90;;;18.50;52.00;;;;;;5166820;28;20952;-51
2022/06/14 07:17:36;;;;;;;3.90;1.70;;;18.50;52.80;;;;;;5177951;28;20439;-50
2022/06/14 07:20:36;;;;;;;8.10;1.93;;;18.40;52.40;;;;;;5181210;28;21005;-50
2022/06/14 07:23:29;;;;;;;7.50;2.17;;;17.80;53.20;;;;;;5180413;28;20447;-51
2022/06/14 07:26:15;;;;;;;8.57;2.07;;;17.40;54.60;;;;;;5184083;28;20436;-51
2022/06/14 07:29:17;;;;;;;4.93;1.90;;;17.40;55.20;;;;;;5173640;28;20439;-51
2022/06/14 07:32:07;;;;;;;3.90;1.83;;;17.00;55.40;;;;;;5173491;28;20446;-50
2022/06/14 07:34:40;;;;;;;5.17;1.53;;;17.00;56.70;;;;;;5178874;28;20487;-50
2022/06/14 07:37:15;;;;;;;3.60;1.63;;;17.30;55.70;;;;;;5182389;28;20923;-50
2022/06/14 07:39:55;;;;;;;5.30;1.60;;;17.10;55.10;;;;;;5179398;28;20569;-50
2022/06/14 07:42:36;;;;;;;2.20;1.63;;;17.10;56.10;;;;;;5178670;28;20435;-50
2022/06/14 07:45:17;;;;;;;5.50;2.27;;;17.60;55.60;;;;;;5183882;28;20927;-50
2022/06/14 07:47:57;;;;;;;6.13;1.87;;;17.70;55.10;;;;;;5186061;28;20457;-50
2022/06/14 07:50:37;;;;;;;8.73;1.80;;;17.70;55.30;;;;;;5186384;28;20446;-52
2022/06/14 07:53:32;;;;;;;6.37;2.27;;;17.70;55.00;;;;;;5176966;28;20431;-51
2022/06/14 07:56:15;;;;;;;10.20;2.37;;;17.60;55.20;;;;;;5187768;28;20466;-50
2022/06/14 07:58:55;;;;;;;4.53;1.90;;;17.30;55.60;;;;;;5183242;28;20439;-49
2022/06/14 08:01:37;;;;;;;12.07;2.53;;;17.30;56.40;;;;;;5183985;28;20980;-52
2022/06/14 08:04:15;;;;;;;10.07;2.70;;;17.70;56.30;;;;;;5177112;28;20404;-54
2022/06/14 08:06:52;;;;;;;5.20;1.77;;;17.60;55.50;;;;;;5187351;28;20439;-50
2022/06/14 08:09:33;;;;;;;4.60;1.90;;;17.50;55.80;;;;;;5185362;28;20986;-53
2022/06/14 08:12:30;;;;;;;8.00;2.33;;;17.70;55.40;;;;;;5186052;28;20498;-50
2022/06/14 08:15:11;;;;;;;5.53;1.53;;;17.50;55.90;;;;;;5185306;28;20443;-52
2022/06/14 08:18:10;;;;;;;9.60;2.47;;;18.00;55.10;;;;;;5171669;28;20490;-53
2022/06/14 08:20:46;;;;;;;5.03;2.37;;;17.90;53.60;;;;;;5171754;28;20995;-51
2022/06/14 08:23:32;;;;;;;7.17;1.50;;;18.00;53.40;;;;;;5179256;28;20766;-51
2022/06/14 08:26:28;;;;;;;2.43;1.83;;;18.00;52.10;;;;;;5182338;28;20459;-50
2022/06/14 08:29:07;;;;;;;10.00;1.83;;;17.80;50.90;;;;;;5170954;28;20456;-49
2022/06/14 08:31:57;;;;;;;3.37;2.03;;;17.90;51.40;;;;;;5174054;28;20756;-50
2022/06/14 08:34:34;;;;;;;2.77;1.47;;;18.10;50.90;;;;;;5180990;28;20416;-53
2022/06/14 08:37:16;;;;;;;3.90;1.40;;;18.10;50.00;;;;;;5179383;28;20435;-50
2022/06/14 08:40:02;;;;;;;1.50;1.00;;;18.10;50.60;;;;;;5183842;28;20485;-50
2022/06/14 08:42:40;;;;;;;5.87;1.50;;;18.00;49.80;;;;;;5185040;28;20447;-49
2022/06/14 08:45:29;;;;;;;5.80;1.63;;;18.00;51.10;;;;;;5185006;28;20843;-50
2022/06/14 08:48:00;;;;;;;2.10;1.77;;;18.30;51.10;;;;;;5185399;28;20435;-50
2022/06/14 08:50:57;;;;;;;6.97;1.60;;;18.00;50.20;;;;;;5184813;28;20459;-50
2022/06/14 08:53:31;;;;;;;8.13;1.63;;;18.00;51.60;;;;;;5173261;28;20671;-50
2022/06/14 08:56:22;;;;;;;1.90;1.57;;;18.50;50.60;;;;;;5180534;28;20475;-51
2022/06/14 08:58:56;;;;;;;6.20;1.80;;;18.90;48.90;;;;;;5166145;28;21176;-52
2022/06/14 09:02:04;;;;;;;6.80;1.10;;;19.60;47.40;;;;;;5186672;28;20415;-50
2022/06/14 09:05:02;;;;;;;4.80;2.10;;;20.30;46.10;;;;;;5179002;28;20423;-52
2022/06/14 09:07:54;;;;;;;4.00;1.40;;;20.90;44.70;;;;;;5168935;28;20512;-51
2022/06/14 09:10:33;;;;;;;3.07;1.33;;;21.00;44.20;;;;;;5168313;28;20463;-50
2022/06/14 09:13:28;;;;;;;2.10;1.03;;;20.50;42.90;;;;;;5176975;28;20896;-51
2022/06/14 09:16:34;;;;;;;3.73;1.10;;;20.60;43.40;;;;;;5173327;28;20497;-50
2022/06/14 09:19:34;;;;;;;2.53;1.03;;;20.40;43.10;;;;;;5123486;28;20584;-51
2022/06/14 09:22:23;;;;;;;7.07;1.70;;;19.50;43.90;;;;;;5182940;28;20447;-49
2022/06/14 09:25:06;;;;;;;6.03;1.50;;;19.30;45.00;;;;;;5184508;28;20479;-52
2022/06/14 09:27:46;;;;;;;4.03;1.70;;;19.50;45.00;;;;;;5181907;28;20791;-50
2022/06/14 09:30:44;;;;;;;3.03;1.50;;;19.50;44.00;;;;;;5167042;28;20470;-51
2022/06/14 09:33:52;;;;;;;5.50;1.60;;;19.60;45.00;;;;;;5180568;28;20958;-50
2022/06/14 09:37:01;;;;;;;2.97;0.90;;;19.80;43.10;;;;;;5182335;28;20452;-50
2022/06/14 09:39:58;;;;;;;2.50;1.00;;;20.50;43.50;;;;;;5171638;28;20621;-51
2022/06/14 09:42:58;;;;;;;10.17;6.20;;;21.10;42.40;;;;;;5161528;28;20463;-51
2022/06/14 09:45:39;;;;;;;5.07;2.20;;;20.70;42.40;;;;;;5160464;28;20439;-52
2022/06/14 09:48:21;;;;;;;7.53;3.70;;;19.70;43.00;;;;;;5183675;28;20450;-50
2022/06/14 09:51:11;;;;;;;9.03;3.80;;;19.10;44.10;;;;;;5177290;28;20463;-51
2022/06/14 09:54:06;;;;;;;7.07;2.70;;;18.70;45.00;;;;;;5188218;28;20434;-50
2022/06/14 09:56:55;;;;;;;2.77;1.90;;;18.30;46.20;;;;;;5186184;28;20440;-50
2022/06/14 09:59:49;;;;;;;4.23;2.57;;;18.50;47.40;;;;;;5176919;28;20475;-51
2022/06/14 10:02:28;;;;;;;6.83;2.00;;;18.40;47.70;;;;;;5166541;28;20439;-51
2022/06/14 10:05:07;;;;;;;8.47;1.67;;;18.30;48.00;;;;;;5178376;28;20426;-50
2022/06/14 10:07:58;;;;;;;4.23;2.30;;;18.20;47.90;;;;;;5179456;28;20943;-50
2022/06/14 10:10:56;;;;;;;9.70;3.30;;;18.60;47.80;;;;;;5179808;28;20454;-50
2022/06/14 10:13:41;;;;;;;4.67;1.40;;;18.80;47.50;;;;;;5178163;28;20892;-51
2022/06/14 10:16:11;;;;;;;2.63;1.57;;;19.30;47.10;;;;;;5179613;28;20943;-52
2022/06/14 10:19:07;;;;;;;5.80;1.97;;;19.40;46.60;;;;;;5179112;28;20474;-50
2022/06/14 10:22:06;;;;;;;3.53;1.70;;;19.30;47.10;;;;;;5188255;28;20192;-51
2022/06/14 10:24:58;;;;;;;8.23;4.40;;;18.80;46.60;;;;;;5177094;28;20426;-52
2022/06/14 10:28:14;;;;;;;2.90;1.63;;;18.50;47.70;;;;;;5184003;28;20498;-51
2022/06/14 10:30:51;;;;;;;5.57;3.30;;;18.60;46.80;;;;;;5174820;28;20452;-51
2022/06/14 10:33:34;;;;;;;1.53;1.13;;;18.70;46.00;;;;;;5186788;28;20439;-51
2022/06/14 10:36:29;;;;;;;3.83;1.43;;;18.70;46.00;;;;;;5175349;28;20855;-51
2022/06/14 10:39:10;;;;;;;5.60;1.40;;;19.00;46.30;;;;;;5179872;28;20475;-55
2022/06/14 10:42:01;;;;;;;6.33;1.67;;;19.30;45.80;;;;;;5182290;28;20427;-51
2022/06/14 10:44:54;;;;;;;1.80;1.37;;;19.50;45.60;;;;;;5153625;28;20479;-50
2022/06/14 10:47:44;;;;;;;13.83;7.03;;;19.80;46.00;;;;;;5173487;28;20435;-51
2022/06/14 10:50:37;;;;;;;14.17;4.13;;;20.20;45.40;;;;;;5187050;28;20486;-51
2022/06/14 10:53:24;;;;;;;5.10;1.67;;;20.40;44.70;;;;;;5176528;28;20410;-51
2022/06/14 10:56:03;;;;;;;14.57;2.60;;;20.30;44.00;;;;;;5179591;28;20430;-56
2022/06/14 10:58:37;;;;;;;10.40;1.80;;;20.20;45.00;;;;;;5176318;28;20458;-52
2022/06/14 11:01:50;;;;;;;5.53;1.67;;;20.40;44.20;;;;;;5177255;28;20517;-52
2022/06/14 11:04:39;;;;;;;3.30;1.33;;;20.10;44.90;;;;;;5176691;28;20439;-51
2022/06/14 11:07:30;;;;;;;12.53;6.50;;;20.00;44.30;;;;;;5186541;28;20528;-52
2022/06/14 11:10:15;;;;;;;20.37;6.00;;;20.20;44.70;;;;;;5184091;28;20517;-51
2022/06/14 11:13:03;;;;;;;5.80;2.53;;;20.40;44.60;;;;;;5186334;28;20564;-51
2022/06/14 11:16:04;;;;;;;5.80;2.23;;;20.20;43.60;;;;;;5182117;28;20593;-50
2022/06/14 11:18:50;;;;;;;7.57;4.50;;;20.30;44.50;;;;;;5178784;28;20943;-51
2022/06/14 11:21:53;;;;;;;11.13;2.40;;;20.20;44.20;;;;;;5186779;28;20611;-52
2022/06/14 11:25:04;;;;;;;6.20;5.60;;;20.50;44.50;;;;;;5150258;28;20536;-51
2022/06/14 11:27:52;;;;;;;26.23;10.33;;;20.40;44.70;;;;;;5177189;28;20424;-52
2022/06/14 11:30:40;;;;;;;17.60;8.70;;;20.40;44.60;;;;;;5175427;28;20983;-52
2022/06/14 11:33:30;;;;;;;6.30;1.80;;;20.50;44.80;;;;;;5186164;28;20435;-51
2022/06/14 11:36:12;;;;;;;3.20;1.90;;;20.30;44.10;;;;;;5180341;28;20431;-54
2022/06/14 11:39:04;;;;;;;3.03;1.67;;;20.20;45.10;;;;;;5182200;28;20500;-51
2022/06/14 11:41:41;;;;;;;9.07;5.23;;;20.30;44.50;;;;;;5173311;28;20429;-52
2022/06/14 11:44:30;;;;;;;4.83;2.47;;;20.40;44.50;;;;;;5179462;28;20419;-53
2022/06/14 11:47:17;;;;;;;10.50;5.70;;;20.40;43.50;;;;;;5197070;28;20434;-53
2022/06/14 11:50:02;;;;;;;3.60;2.13;;;20.30;44.00;;;;;;5178569;28;20443;-50
2022/06/14 11:52:54;;;;;;;4.53;1.73;;;20.10;43.70;;;;;;5182718;28;20478;-50
2022/06/14 11:55:39;;;;;;;20.13;2.60;;;20.60;44.10;;;;;;5181163;28;20526;-51
2022/06/14 11:58:19;;;;;;;16.27;8.73;;;21.20;42.50;;;;;;5181265;28;20431;-53
2022/06/14 12:01:02;;;;;;;5.57;2.53;;;21.10;42.10;;;;;;5205360;22;21022;-56
2022/06/14 12:04:00;;;;;;;2.90;1.60;;;20.80;42.70;;;;;;5202757;28;20438;-59
2022/06/14 12:06:49;;;;;;;3.03;2.10;;;20.70;43.20;;;;;;5202744;28;20529;-57
2022/06/14 12:09:32;;;;;;;6.20;2.60;;;20.50;43.50;;;;;;5197036;28;20451;-58
2022/06/14 12:12:14;;;;;;;1.13;1.13;;;20.10;43.50;;;;;;5204893;28;20434;-58
2022/06/14 12:14:52;;;;;;;1.87;1.73;;;20.00;44.30;;;;;;5205859;28;20512;-57
2022/06/14 12:17:28;;;;;;;17.33;6.50;;;20.20;44.80;;;;;;5205604;28;20419;-57
2022/06/14 12:20:15;;;;;;;5.40;1.50;;;20.20;43.80;;;;;;5206174;28;20470;-58
2022/06/14 12:23:03;;;;;;;4.00;1.30;;;20.30;44.00;;;;;;5199391;28;20445;-59
2022/06/14 12:28:52;;;;;;;4.80;1.97;;;19.60;43.80;;;;;;5203542;28;20445;-59
2022/06/14 12:31:32;;;;;;;9.20;1.43;;;19.80;44.20;;;;;;5193012;28;20463;-59
2022/06/14 12:34:31;;;;;;;2.47;1.10;;;19.80;43.70;;;;;;5198430;28;20496;-59
2022/06/14 12:37:18;;;;;;;15.50;5.80;;;19.80;43.50;;;;;;5195624;28;20537;-59
2022/06/14 12:40:14;;;;;;;17.63;5.23;;;19.80;43.60;;;;;;5194967;28;20512;-57
2022/06/14 12:42:57;;;;;;;1.30;1.27;;;19.70;43.90;;;;;;5192299;28;20442;-57
2022/06/14 12:45:40;;;;;;;2.70;1.00;;;20.00;43.80;;;;;;5201179;28;20435;-57
2022/06/14 12:48:40;;;;;;;3.60;1.60;;;19.90;43.00;;;;;;5198290;28;20577;-58
2022/06/14 12:51:19;;;;;;;3.07;1.47;;;19.90;43.30;;;;;;5205234;28;20477;-58
2022/06/14 12:54:32;;;;;;;1.50;1.30;;;20.20;43.50;;;;;;5205126;28;20441;-57
2022/06/14 12:57:25;;;;;;;4.13;1.50;;;20.70;43.10;;;;;;5202785;28;20435;-60
2022/06/14 13:00:08;;;;;;;5.50;2.60;;;21.00;42.50;;;;;;5201407;28;20471;-58
2022/06/14 13:02:54;;;;;;;6.33;2.10;;;21.30;42.00;;;;;;5201737;28;20442;-58
2022/06/14 13:05:34;;;;;;;9.37;2.33;;;21.10;41.30;;;;;;5214676;28;20444;-59
2022/06/14 13:08:16;;;;;;;3.10;1.30;;;20.90;41.70;;;;;;5207064;28;20410;-58
2022/06/14 13:11:08;;;;;;;2.50;1.10;;;20.60;42.40;;;;;;5198255;28;21062;-57
2022/06/14 13:14:08;;;;;;;0.90;0.90;;;20.40;42.20;;;;;;5187513;28;20554;-58
2022/06/14 13:17:21;;;;;;;2.97;0.93;;;20.50;42.80;;;;;;5203965;28;20878;-57
2022/06/14 13:20:09;;;;;;;1.57;1.17;;;20.40;41.70;;;;;;5154242;28;20484;-57
2022/06/14 13:23:09;;;;;;;6.20;5.17;;;20.50;42.40;;;;;;5190668;28;20438;-58
2022/06/14 13:25:45;;;;;;;4.97;1.60;;;20.70;42.30;;;;;;5203228;28;20430;-59
2022/06/14 13:28:18;;;;;;;7.50;1.83;;;20.90;41.70;;;;;;5205698;28;20434;-59
2022/06/14 13:30:58;;;;;;;3.63;1.60;;;20.70;42.20;;;;;;5204460;28;20544;-58
2022/06/14 13:33:43;;;;;;;3.80;1.40;;;20.80;42.10;;;;;;5200591;28;20482;-58
2022/06/14 13:36:37;;;;;;;4.73;1.70;;;20.90;41.40;;;;;;5187689;28;20438;-59
2022/06/14 13:39:16;;;;;;;3.73;2.10;;;21.40;41.30;;;;;;5199038;28;21001;-58
2022/06/14 13:42:03;;;;;;;1.93;1.60;;;21.80;40.90;;;;;;5199114;28;20459;-59
2022/06/14 13:44:48;;;;;;;2.83;1.27;;;22.10;40.20;;;;;;5204413;28;20422;-57
2022/06/14 13:47:24;;;;;;;1.67;1.33;;;22.00;39.70;;;;;;5206407;28;20551;-58
2022/06/14 13:50:06;;;;;;;1.53;1.47;;;21.60;40.50;;;;;;5208498;28;20453;-61
2022/06/14 13:53:06;;;;;;;1.87;1.17;;;21.60;40.80;;;;;;5199145;28;20474;-58
2022/06/14 13:55:45;;;;;;;9.30;1.90;;;21.60;40.90;;;;;;5204635;28;20517;-59
2022/06/14 13:58:33;;;;;;;1.47;1.00;;;21.80;40.70;;;;;;5196432;28;20449;-58
2022/06/14 14:01:19;;;;;;;1.17;0.80;;;21.70;40.00;;;;;;5203367;28;20474;-58
2022/06/14 14:04:26;;;;;;;1.43;1.23;;;21.30;40.40;;;;;;5198997;28;20517;-58
2022/06/14 14:06:59;;;;;;;2.50;1.57;;;21.20;40.30;;;;;;5202597;28;20481;-58
2022/06/14 14:09:48;;;;;;;3.33;1.43;;;20.90;41.30;;;;;;5192329;28;20459;-57
2022/06/14 14:12:56;;;;;;;0.60;0.60;;;20.70;41.40;;;;;;5204495;28;20479;-57
2022/06/14 14:15:29;;;;;;;8.70;5.00;;;20.60;42.00;;;;;;5183076;28;20442;-59
2022/06/14 14:18:23;;;;;;;5.20;3.80;;;20.40;41.90;;;;;;5221337;28;20941;-60
2022/06/14 14:21:10;;;;;;;2.63;1.43;;;20.30;41.90;;;;;;5198209;28;21030;-58
2022/06/14 14:23:49;;;;;;;14.83;5.37;;;20.00;42.80;;;;;;5204050;28;20421;-57
2022/06/14 14:26:36;;;;;;;4.50;2.50;;;20.20;43.10;;;;;;5203045;28;20870;-59
2022/06/14 14:29:21;;;;;;;2.83;1.63;;;20.20;42.50;;;;;;5193642;28;20950;-58